createdAt,value
2022-10-20T00:01:18.966Z,28.38
2022-10-20T00:03:46.757Z,25.92
2022-10-20T00:06:25.694Z,25.98
2022-10-20T00:08:53.995Z,28.00
2022-10-20T00:11:21.980Z,25.02
2022-10-20T00:13:50.877Z,25.35
2022-10-20T00:16:18.350Z,25.85
2022-10-20T00:18:45.863Z,26.40
2022-10-20T00:21:15.266Z,26.80
2022-10-20T00:23:42.747Z,25.80
2022-10-20T00:26:18.934Z,25.65
2022-10-20T00:28:46.474Z,25.23
2022-10-20T00:31:13.964Z,28.05
2022-10-20T00:33:41.415Z,26.38
2022-10-20T00:36:09.879Z,29.17
2022-10-20T00:38:37.394Z,24.92
2022-10-20T00:41:07.901Z,26.90
2022-10-20T00:43:47.410Z,27.98
2022-10-20T00:46:17.723Z,27.30
2022-10-20T00:48:47.169Z,25.25
2022-10-20T00:51:18.143Z,26.90
2022-10-20T00:53:45.618Z,31.15
2022-10-20T00:56:13.511Z,29.20
2022-10-20T00:58:41.473Z,26.30
2022-10-20T01:01:11.599Z,27.55
2022-10-20T01:03:47.058Z,27.92
2022-10-20T01:06:18.803Z,26.08
2022-10-20T01:08:46.397Z,27.15
2022-10-20T01:11:23.743Z,25.70
2022-10-20T01:14:42.236Z,25.35
2022-10-20T01:17:27.297Z,25.92
2022-10-20T01:20:23.692Z,24.95
2022-10-20T01:23:40.472Z,26.33
2022-10-20T01:26:19.742Z,27.50
2022-10-20T01:29:13.489Z,28.92
2022-10-20T01:31:55.324Z,26.27
2022-10-20T01:34:33.192Z,28.23
2022-10-20T01:37:10.288Z,25.48
2022-10-20T01:39:46.510Z,27.48
2022-10-20T01:42:16.938Z,26.13
2022-10-20T01:44:44.404Z,25.58
2022-10-20T01:47:11.873Z,27.60
2022-10-20T01:49:44.579Z,29.40
2022-10-20T01:52:12.245Z,27.92
2022-10-20T01:54:40.859Z,28.95
2022-10-20T01:57:26.973Z,25.83
2022-10-20T02:00:00.109Z,28.50
2022-10-20T02:03:05.687Z,28.90
2022-10-20T02:06:00.894Z,23.70
2022-10-20T02:08:45.843Z,25.48
2022-10-20T02:11:19.158Z,28.95
2022-10-20T02:13:46.620Z,26.98
2022-10-20T02:16:19.514Z,27.40
2022-10-20T02:18:47.123Z,27.35
2022-10-20T02:21:16.993Z,29.30
2022-10-20T02:23:45.010Z,27.45
2022-10-20T02:26:14.542Z,26.90
2022-10-20T02:28:45.048Z,28.00
2022-10-20T02:31:12.431Z,29.00
2022-10-20T02:33:40.254Z,28.30
2022-10-20T02:36:10.417Z,28.33
2022-10-20T02:38:37.857Z,29.10
2022-10-20T02:41:05.382Z,26.88
2022-10-20T02:43:32.922Z,26.88
2022-10-20T02:46:00.332Z,30.42
2022-10-20T02:48:27.797Z,28.05
2022-10-20T02:50:55.198Z,27.42
2022-10-20T02:53:22.658Z,27.23
2022-10-20T02:55:50.162Z,29.70
2022-10-20T02:58:17.566Z,28.92
2022-10-20T03:00:44.989Z,27.95
2022-10-20T03:03:15.480Z,26.67
2022-10-20T03:05:44.518Z,23.90
2022-10-20T03:08:12.036Z,25.27
2022-10-20T03:10:39.461Z,28.25
2022-10-20T03:13:06.803Z,27.85
2022-10-20T03:15:34.205Z,26.13
2022-10-20T03:18:01.570Z,28.80
2022-10-20T03:20:28.935Z,27.83
2022-10-20T03:22:56.295Z,29.55
2022-10-20T03:25:23.759Z,27.42
2022-10-20T03:27:52.650Z,29.20
2022-10-20T03:30:20.037Z,24.58
2022-10-20T03:32:47.666Z,28.13
2022-10-20T03:35:15.109Z,26.13
2022-10-20T03:37:42.582Z,27.45
2022-10-20T03:40:10.336Z,30.58
2022-10-20T03:42:38.019Z,28.42
2022-10-20T03:45:06.159Z,24.90
2022-10-20T03:47:33.507Z,24.27
2022-10-20T03:52:37.043Z,24.75
2022-10-20T03:55:04.955Z,26.20
2022-10-20T03:57:32.299Z,26.73
2022-10-20T03:59:59.651Z,23.98
2022-10-20T04:02:35.007Z,26.52
2022-10-20T04:05:02.687Z,24.35
2022-10-20T04:07:30.111Z,24.65
2022-10-20T04:09:57.596Z,25.85
2022-10-20T04:12:25.046Z,22.65
2022-10-20T04:14:52.512Z,23.67
2022-10-20T04:17:22.690Z,23.33
2022-10-20T04:19:50.120Z,24.60
2022-10-20T04:22:17.503Z,25.15
2022-10-20T04:24:44.988Z,28.80
2022-10-20T04:27:12.412Z,23.23
2022-10-20T04:29:39.790Z,24.17
2022-10-20T04:32:07.213Z,26.40
2022-10-20T04:34:35.009Z,23.20
2022-10-20T04:37:04.977Z,24.35
2022-10-20T04:39:32.506Z,26.95
2022-10-20T04:42:02.460Z,24.58
2022-10-20T04:44:29.875Z,25.05
2022-10-20T04:46:57.287Z,24.42
2022-10-20T04:49:24.916Z,23.35
2022-10-20T04:51:52.322Z,23.15
2022-10-20T04:54:19.686Z,23.63
2022-10-20T04:56:47.135Z,24.30
2022-10-20T04:59:17.216Z,22.75
2022-10-20T05:01:44.620Z,22.45
2022-10-20T05:04:12.116Z,20.65
2022-10-20T05:06:39.571Z,24.05
2022-10-20T05:09:07.204Z,22.75
2022-10-20T05:11:35.844Z,23.10
2022-10-20T05:14:03.255Z,24.58
2022-10-20T05:16:30.663Z,25.13
2022-10-20T05:18:58.231Z,24.10
2022-10-20T05:21:28.320Z,22.48
2022-10-20T05:24:00.210Z,22.10
2022-10-20T05:26:29.505Z,23.52
2022-10-20T05:28:57.004Z,22.67
2022-10-20T05:31:24.415Z,22.05
2022-10-20T05:33:53.837Z,24.60
2022-10-20T05:36:26.000Z,21.75
2022-10-20T05:38:54.186Z,23.60
2022-10-20T05:41:26.375Z,23.25
2022-10-20T05:44:01.740Z,21.92
2022-10-20T05:46:31.608Z,24.50
2022-10-20T05:49:00.404Z,24.42
2022-10-20T05:51:30.605Z,23.55
2022-10-20T05:53:58.531Z,24.42
2022-10-20T05:56:26.657Z,23.77
2022-10-20T05:58:54.211Z,23.77
2022-10-20T06:01:38.795Z,22.33
2022-10-20T06:06:34.364Z,22.55
2022-10-20T06:09:05.108Z,22.08
2022-10-20T06:11:35.910Z,20.63
2022-10-20T06:14:07.655Z,21.58
2022-10-20T06:16:35.128Z,24.38
2022-10-20T06:19:02.724Z,26.33
2022-10-20T06:21:31.822Z,23.75
2022-10-20T06:23:59.890Z,26.17
2022-10-20T06:26:30.029Z,24.85
2022-10-20T06:29:03.621Z,23.83
2022-10-20T06:31:33.362Z,24.80
2022-10-20T06:34:00.939Z,24.73
2022-10-20T06:36:28.341Z,27.08
2022-10-20T06:38:56.756Z,23.98
2022-10-20T06:41:24.378Z,23.05
2022-10-20T06:44:00.347Z,21.00
2022-10-20T06:46:29.117Z,21.63
2022-10-20T06:48:58.732Z,23.67
2022-10-20T06:51:26.793Z,21.05
2022-10-20T06:53:54.251Z,21.75
2022-10-20T06:56:23.730Z,24.98
2022-10-20T06:58:52.509Z,21.40
2022-10-20T07:01:23.414Z,22.63
2022-10-20T07:03:53.226Z,22.23
2022-10-20T07:06:25.602Z,20.85
2022-10-20T07:08:53.851Z,22.80
2022-10-20T07:11:22.291Z,21.83
2022-10-20T07:13:49.762Z,22.38
2022-10-20T07:16:22.339Z,20.25
2022-10-20T07:18:50.148Z,22.52
2022-10-20T07:21:19.011Z,21.02
2022-10-20T07:23:47.889Z,19.90
2022-10-20T07:26:25.304Z,20.50
2022-10-20T07:28:57.146Z,22.15
2022-10-20T07:31:35.565Z,23.20
2022-10-20T07:36:50.815Z,17.63
2022-10-20T07:39:18.251Z,19.52
2022-10-20T07:41:47.762Z,17.15
2022-10-20T07:44:15.509Z,18.30
2022-10-20T07:46:42.947Z,17.88
2022-10-20T07:49:43.469Z,15.80
2022-10-20T07:51:57.893Z,16.55
2022-10-20T07:54:25.464Z,18.45
2022-10-20T07:56:53.103Z,15.15
2022-10-20T07:59:20.553Z,15.73
2022-10-20T08:01:48.114Z,17.30
2022-10-20T08:04:15.656Z,17.95
2022-10-20T08:06:43.072Z,20.20
2022-10-20T08:09:10.954Z,13.63
2022-10-20T08:11:41.378Z,16.63
2022-10-20T08:14:08.885Z,15.23
2022-10-20T08:16:37.429Z,15.30
2022-10-20T08:19:10.789Z,12.88
2022-10-20T08:21:38.324Z,14.43
2022-10-20T08:24:06.114Z,14.38
2022-10-20T08:26:33.499Z,13.15
2022-10-20T08:29:04.946Z,13.25
2022-10-20T08:31:32.403Z,14.13
2022-10-20T08:34:00.274Z,14.85
2022-10-20T08:36:30.280Z,13.73
2022-10-20T08:39:03.569Z,12.63
2022-10-20T08:42:06.298Z,13.45
2022-10-20T08:44:34.471Z,14.00
2022-10-20T08:47:02.908Z,11.10
2022-10-20T08:49:32.074Z,12.63
2022-10-20T08:52:00.017Z,13.80
2022-10-20T08:54:27.690Z,11.65
2022-10-20T08:56:55.091Z,13.30
2022-10-20T08:59:30.395Z,11.55
2022-10-20T09:02:00.644Z,12.65
2022-10-20T09:04:40.485Z,9.85
2022-10-20T09:07:17.934Z,12.15
2022-10-20T09:09:45.397Z,9.88
2022-10-20T09:12:15.055Z,11.68
2022-10-20T09:14:42.474Z,10.63
2022-10-20T09:17:16.935Z,10.57
2022-10-20T09:19:50.080Z,10.30
2022-10-20T09:22:17.969Z,11.65
2022-10-20T09:24:45.525Z,10.48
2022-10-20T09:27:31.429Z,12.45
2022-10-20T09:29:58.764Z,9.80
2022-10-20T09:32:48.381Z,11.45
2022-10-20T09:35:30.052Z,13.18
2022-10-20T09:38:23.974Z,11.95
2022-10-20T09:41:13.966Z,10.82
2022-10-20T09:43:47.532Z,15.02
2022-10-20T09:46:15.047Z,11.55
2022-10-20T09:48:47.141Z,10.43
2022-10-20T09:51:19.202Z,11.30
2022-10-20T09:53:54.051Z,10.88
2022-10-20T09:56:29.174Z,10.80
2022-10-20T09:58:57.083Z,11.60
2022-10-20T10:01:24.646Z,13.07
2022-10-20T10:03:53.205Z,11.73
2022-10-20T10:06:29.242Z,13.00
2022-10-20T10:09:00.521Z,9.85
2022-10-20T10:11:35.598Z,12.43
2022-10-20T10:14:03.509Z,11.77
2022-10-20T10:16:40.882Z,10.85
2022-10-20T10:19:08.497Z,11.38
2022-10-20T10:22:00.970Z,11.98
2022-10-20T10:24:39.312Z,12.90
2022-10-20T10:27:23.317Z,13.35
2022-10-20T10:29:50.799Z,11.48
2022-10-20T10:32:25.741Z,11.02
2022-10-20T10:35:17.240Z,10.63
2022-10-20T10:38:03.389Z,11.45
2022-10-20T10:40:38.662Z,12.45
2022-10-20T10:43:16.032Z,10.73
2022-10-20T10:46:07.450Z,11.27
2022-10-20T10:48:59.710Z,11.50
2022-10-20T10:51:39.291Z,11.55
2022-10-20T10:54:44.203Z,12.45
2022-10-20T10:57:59.659Z,11.55
2022-10-20T11:00:42.302Z,11.02
2022-10-20T11:03:17.970Z,9.95
2022-10-20T11:06:09.577Z,10.57
2022-10-20T11:08:40.784Z,11.32
2022-10-20T11:11:21.888Z,11.45
2022-10-20T11:13:55.877Z,10.25
2022-10-20T11:16:40.607Z,11.32
2022-10-20T11:21:58.422Z,10.68
2022-10-20T11:24:44.455Z,11.05
2022-10-20T11:27:13.983Z,10.93
2022-10-20T11:29:57.585Z,10.38
2022-10-20T11:32:56.548Z,10.07
2022-10-20T11:35:58.363Z,11.27
2022-10-20T11:38:33.468Z,11.75
2022-10-20T11:41:17.116Z,12.07
2022-10-20T11:43:53.579Z,12.10
2022-10-20T11:46:23.047Z,14.98
2022-10-20T11:48:51.916Z,9.93
2022-10-20T11:51:31.187Z,11.13
2022-10-20T11:54:33.102Z,11.10
2022-10-20T11:57:29.607Z,10.38
2022-10-20T12:00:03.860Z,9.43
2022-10-20T12:03:21.440Z,9.73
2022-10-20T12:06:16.453Z,11.90
2022-10-20T12:11:42.112Z,10.20
2022-10-20T12:14:15.512Z,10.35
2022-10-20T12:16:51.873Z,9.65
2022-10-20T12:19:23.106Z,9.20
2022-10-20T12:22:13.780Z,11.60
2022-10-20T12:24:50.927Z,9.32
2022-10-20T12:27:20.950Z,9.70
2022-10-20T12:30:00.296Z,11.38
2022-10-20T12:32:27.681Z,9.80
2022-10-20T12:34:59.588Z,10.50
2022-10-20T12:37:33.970Z,9.40
2022-10-20T12:42:48.122Z,10.82
2022-10-20T12:45:18.584Z,10.32
2022-10-20T12:47:56.311Z,9.63
2022-10-20T12:50:38.351Z,11.38
2022-10-20T12:53:23.261Z,11.07
2022-10-20T12:56:03.886Z,10.27
2022-10-20T12:59:08.004Z,10.55
2022-10-20T13:02:09.450Z,9.85
2022-10-20T13:04:57.794Z,9.65
2022-10-20T13:07:46.819Z,11.80
2022-10-20T13:10:33.789Z,9.23
2022-10-20T13:13:01.146Z,11.55
2022-10-20T13:15:52.512Z,10.55
2022-10-20T13:18:27.189Z,10.25
2022-10-20T13:21:19.628Z,12.00
2022-10-20T13:23:50.492Z,13.43
2022-10-20T13:26:32.228Z,12.65
2022-10-20T13:29:00.380Z,9.55
2022-10-20T13:31:39.911Z,10.38
2022-10-20T13:34:20.782Z,10.27
2022-10-20T13:37:03.504Z,10.38
2022-10-20T13:39:42.857Z,9.50
2022-10-20T13:42:19.399Z,10.52
2022-10-20T13:45:12.576Z,10.57
2022-10-20T13:47:50.178Z,9.50
2022-10-20T13:50:21.833Z,8.95
2022-10-20T13:52:51.216Z,11.30
2022-10-20T13:55:21.394Z,10.88
2022-10-20T13:58:01.386Z,9.23
2022-10-20T14:00:30.334Z,10.25
2022-10-20T14:03:02.953Z,9.00
2022-10-20T14:05:36.627Z,10.75
2022-10-20T14:08:08.572Z,10.43
2022-10-20T14:10:55.979Z,10.02
2022-10-20T14:13:26.014Z,9.05
2022-10-20T14:15:56.774Z,9.80
2022-10-20T14:18:28.905Z,9.45
2022-10-20T14:21:03.850Z,9.23
2022-10-20T14:23:41.906Z,9.52
2022-10-20T14:26:20.516Z,9.23
2022-10-20T14:28:48.956Z,9.13
2022-10-20T14:31:16.442Z,9.40
2022-10-20T14:33:45.098Z,10.13
2022-10-20T14:36:20.662Z,8.25
2022-10-20T14:38:49.573Z,9.27
2022-10-20T14:41:31.029Z,8.88
2022-10-20T14:44:10.714Z,10.82
2022-10-20T14:46:46.121Z,9.43
2022-10-20T14:49:24.700Z,7.85
2022-10-20T14:51:56.468Z,9.02
2022-10-20T14:54:26.450Z,12.38
2022-10-20T14:57:02.810Z,9.07
2022-10-20T14:59:32.056Z,9.02
2022-10-20T15:02:09.628Z,8.60
2022-10-20T15:04:40.373Z,9.05
2022-10-20T15:07:15.302Z,8.18
2022-10-20T15:09:44.733Z,8.85
2022-10-20T15:12:25.757Z,9.40
2022-10-20T15:14:54.448Z,9.20
2022-10-20T15:17:41.931Z,8.27
2022-10-20T15:20:42.063Z,9.32
2022-10-20T15:23:13.454Z,9.43
2022-10-20T15:26:05.068Z,8.52
2022-10-20T15:28:50.330Z,7.50
2022-10-20T15:31:23.956Z,8.70
2022-10-20T15:33:51.895Z,7.88
2022-10-20T15:36:27.685Z,8.55
2022-10-20T15:38:56.077Z,14.43
2022-10-20T15:41:34.123Z,10.73
2022-10-20T15:44:12.077Z,8.32
2022-10-20T15:46:39.580Z,8.02
2022-10-20T15:49:07.064Z,8.35
2022-10-20T15:51:35.450Z,8.35
2022-10-20T15:54:03.175Z,8.75
2022-10-20T15:56:30.614Z,9.40
2022-10-20T15:58:58.079Z,10.63
2022-10-20T16:01:25.555Z,8.15
2022-10-20T16:03:53.156Z,7.70
2022-10-20T16:06:20.658Z,9.73
2022-10-20T16:08:48.872Z,8.40
2022-10-20T16:11:17.264Z,9.55
2022-10-20T16:13:44.691Z,7.88
2022-10-20T16:16:13.629Z,7.75
2022-10-20T16:18:41.139Z,9.93
2022-10-20T16:21:08.583Z,8.90
2022-10-20T16:23:40.613Z,7.97
2022-10-20T16:26:11.147Z,9.35
2022-10-20T16:28:38.671Z,7.53
2022-10-20T16:31:07.767Z,9.23
2022-10-20T16:33:35.424Z,8.63
2022-10-20T16:38:39.114Z,9.82
2022-10-20T16:41:12.225Z,7.60
2022-10-20T16:43:40.736Z,11.73
2022-10-20T16:46:08.352Z,15.27
2022-10-20T16:48:37.731Z,17.50
2022-10-20T16:51:06.738Z,67.30
2022-10-20T16:53:34.455Z,15.38
2022-10-20T16:56:01.909Z,25.23
2022-10-20T16:58:29.483Z,23.77
2022-10-20T17:01:06.286Z,25.77
2022-10-20T17:03:34.496Z,24.90
2022-10-20T17:06:06.480Z,19.45
2022-10-20T17:08:34.681Z,25.67
2022-10-20T17:11:06.073Z,31.35
2022-10-20T17:13:33.849Z,21.08
2022-10-20T17:16:15.254Z,14.68
2022-10-20T17:18:43.141Z,15.60
2022-10-20T17:21:10.770Z,17.42
2022-10-20T17:23:41.796Z,19.63
2022-10-20T17:26:21.447Z,21.40
2022-10-20T17:28:54.974Z,17.10
2022-10-20T17:31:22.763Z,15.07
2022-10-20T17:33:51.475Z,18.30
2022-10-20T17:36:19.150Z,15.25
2022-10-20T17:38:46.615Z,13.25
2022-10-20T17:41:15.112Z,15.35
2022-10-20T17:43:42.536Z,15.85
2022-10-20T17:46:12.255Z,13.52
2022-10-20T17:48:39.783Z,12.65
2022-10-20T17:51:17.161Z,14.32
2022-10-20T17:53:45.847Z,15.65
2022-10-20T17:56:14.959Z,11.60
2022-10-20T17:58:42.944Z,14.48
2022-10-20T18:01:14.210Z,15.75
2022-10-20T18:03:41.830Z,11.10
2022-10-20T18:06:11.033Z,12.48
2022-10-20T18:08:38.595Z,12.55
2022-10-20T18:11:13.673Z,13.27
2022-10-20T18:13:41.201Z,12.15
2022-10-20T18:16:09.738Z,11.75
2022-10-20T18:18:37.249Z,10.55
2022-10-20T18:21:05.013Z,10.85
2022-10-20T18:23:33.504Z,14.88
2022-10-20T18:26:08.383Z,10.45
2022-10-20T18:28:35.894Z,12.10
2022-10-20T18:31:07.167Z,10.23
2022-10-20T18:33:34.655Z,10.98
2022-10-20T18:36:05.143Z,13.15
2022-10-20T18:38:34.470Z,14.60
2022-10-20T18:41:08.804Z,12.65
2022-10-20T18:46:04.258Z,13.80
2022-10-20T18:48:32.203Z,14.93
2022-10-20T18:51:00.590Z,13.30
2022-10-20T18:53:28.560Z,9.30
2022-10-20T18:56:05.366Z,10.82
2022-10-20T18:58:35.206Z,11.10
2022-10-20T19:01:04.515Z,10.93
2022-10-20T19:03:33.192Z,11.18
2022-10-20T19:06:08.677Z,9.00
2022-10-20T19:08:36.773Z,9.98
2022-10-20T19:11:09.081Z,12.30
2022-10-20T19:13:36.709Z,11.82
2022-10-20T19:16:11.492Z,9.48
2022-10-20T19:18:42.242Z,10.07
2022-10-20T19:21:09.775Z,11.85
2022-10-20T19:23:40.514Z,12.95
2022-10-20T19:26:15.286Z,9.50
2022-10-20T19:28:45.323Z,13.88
2022-10-20T19:31:22.961Z,9.50
2022-10-20T19:33:52.233Z,9.38
2022-10-20T19:36:19.919Z,10.15
2022-10-20T19:38:47.515Z,9.90
2022-10-20T19:41:15.252Z,10.65
2022-10-20T19:43:43.687Z,11.65
2022-10-20T19:46:13.232Z,10.70
2022-10-20T19:48:41.329Z,12.55
2022-10-20T19:51:09.902Z,10.52
2022-10-20T19:53:37.990Z,11.30
2022-10-20T19:56:06.983Z,9.98
2022-10-20T19:58:36.397Z,11.77
2022-10-20T20:01:04.418Z,10.00
2022-10-20T20:03:32.036Z,10.35
2022-10-20T20:06:10.212Z,11.48
2022-10-20T20:08:38.277Z,10.77
2022-10-20T20:11:06.239Z,9.95
2022-10-20T20:13:33.753Z,11.63
2022-10-20T20:16:07.252Z,9.75
2022-10-20T20:18:35.926Z,10.48
2022-10-20T20:21:04.465Z,13.00
2022-10-20T20:23:47.563Z,10.85
2022-10-20T20:26:21.779Z,12.38
2022-10-20T20:28:52.036Z,10.82
2022-10-20T20:31:20.705Z,12.25
2022-10-20T20:33:49.127Z,11.82
2022-10-20T20:36:16.705Z,13.95
2022-10-20T20:38:44.189Z,14.20
2022-10-20T20:41:14.770Z,13.65
2022-10-20T20:43:45.063Z,11.60
2022-10-20T20:46:15.078Z,13.00
2022-10-20T20:48:42.702Z,13.20
2022-10-20T20:51:10.240Z,15.82
2022-10-20T20:53:38.030Z,12.90
2022-10-20T20:56:10.340Z,14.30
2022-10-20T20:58:38.915Z,15.40
2022-10-20T21:01:08.060Z,14.63
2022-10-20T21:03:35.797Z,11.68
2022-10-20T21:06:10.584Z,14.25
2022-10-20T21:08:38.844Z,13.40
2022-10-20T21:11:07.159Z,12.93
2022-10-20T21:13:35.068Z,13.45
2022-10-20T21:16:14.115Z,16.42
2022-10-20T21:18:42.454Z,12.38
2022-10-20T21:23:44.252Z,12.98
2022-10-20T21:26:12.869Z,14.82
2022-10-20T21:28:40.647Z,13.18
2022-10-20T21:31:09.157Z,12.43
2022-10-20T21:33:36.696Z,13.35
2022-10-20T21:36:05.970Z,12.55
2022-10-20T21:38:33.791Z,11.73
2022-10-20T21:41:02.921Z,13.63
2022-10-20T21:43:31.436Z,13.15
2022-10-20T21:46:25.991Z,16.25
2022-10-20T21:48:54.944Z,20.67
2022-10-20T21:51:30.046Z,13.23
2022-10-20T21:54:01.585Z,12.88
2022-10-20T21:56:29.069Z,14.75
2022-10-20T21:58:56.526Z,14.13
2022-10-20T22:01:25.176Z,14.38
2022-10-20T22:03:53.294Z,15.15
2022-10-20T22:06:22.445Z,16.27
2022-10-20T22:08:51.198Z,15.73
2022-10-20T22:11:27.372Z,13.25
2022-10-20T22:13:55.055Z,15.75
2022-10-20T22:16:25.237Z,16.67
2022-10-20T22:18:56.728Z,14.52
2022-10-20T22:21:24.420Z,14.93
2022-10-20T22:23:57.643Z,16.52
2022-10-20T22:26:28.864Z,12.20
2022-10-20T22:28:56.977Z,15.13
2022-10-20T22:31:24.761Z,14.38
2022-10-20T22:33:54.924Z,13.43
2022-10-20T22:36:22.593Z,14.23
2022-10-20T22:38:50.041Z,12.98
2022-10-20T22:41:17.490Z,16.67
2022-10-20T22:43:44.985Z,12.98
2022-10-20T22:46:12.474Z,12.82
2022-10-20T22:48:39.990Z,15.25
2022-10-20T22:51:08.265Z,13.07
2022-10-20T22:53:36.601Z,14.32
2022-10-20T23:08:55.896Z,13.93
2022-10-20T23:11:23.670Z,13.73
2022-10-20T23:13:57.569Z,14.88
2022-10-20T23:18:57.381Z,11.43
2022-10-20T23:21:24.812Z,14.43
2022-10-20T23:23:52.196Z,12.05
2022-10-20T23:26:19.574Z,12.82
2022-10-20T23:28:48.687Z,13.63
2022-10-20T23:31:18.024Z,14.50
2022-10-20T23:33:45.894Z,12.50
2022-10-20T23:36:14.038Z,12.63
2022-10-20T23:38:42.199Z,11.30
2022-10-20T23:41:09.774Z,14.02
2022-10-20T23:43:37.182Z,11.05
2022-10-20T23:46:04.818Z,12.50
2022-10-20T23:48:32.239Z,13.80
2022-10-20T23:50:59.647Z,12.52
2022-10-20T23:53:27.909Z,11.35
2022-10-20T23:55:58.360Z,13.05
2022-10-20T23:58:26.008Z,11.90
